Time;durP1;ratioP1;P1;durP2;ratioP2;P2;SDS_P1;SDS_P2;PMS_P1;PMS_P2;Temp;Humidity;BMP_temperature;BMP_pressure;BME280_temperature;BME280_humidity;BME280_pressure;Samples;Min_cycle;Max_cycle;Signal;HPM_P1;HPM_P2
2022/03/04 00:00:32;;;;;;;28.97;17.87;;;11.50;71.40;;;;;;12890019;23;20169;-81
2022/03/04 00:05:35;;;;;;;28.33;16.40;;;10.60;76.70;;;;;;12888756;23;20244;-80
2022/03/04 00:10:38;;;;;;;26.47;15.57;;;11.90;73.40;;;;;;12916091;23;20208;-81
2022/03/04 00:15:41;;;;;;;31.33;18.83;;;12.10;72.50;;;;;;12888527;23;20576;-81
2022/03/04 00:20:43;;;;;;;33.13;19.80;;;12.10;71.30;;;;;;12888330;23;20181;-81
2022/03/04 00:25:46;;;;;;;34.43;19.80;;;12.30;71.70;;;;;;12919934;23;20189;-81
2022/03/04 00:30:49;;;;;;;32.70;18.53;;;11.80;71.10;;;;;;12919619;23;20221;-80
2022/03/04 00:35:53;;;;;;;27.47;16.60;;;11.20;73.20;;;;;;12893217;23;20190;-80
2022/03/04 00:40:55;;;;;;;29.87;16.97;;;11.20;75.00;;;;;;12892331;23;20177;-81
2022/03/04 00:45:59;;;;;;;51.03;28.17;;;11.70;73.50;;;;;;12891628;23;20177;-81
2022/03/04 00:51:01;;;;;;;51.07;25.93;;;11.40;72.50;;;;;;12868166;23;20169;-81
2022/03/04 00:56:06;;;;;;;26.13;16.03;;;10.90;74.90;;;;;;12892385;23;20772;-81
2022/03/04 01:01:08;;;;;;;25.53;15.80;;;11.20;75.20;;;;;;12919878;23;20560;-80
2022/03/04 01:06:11;;;;;;;28.27;16.80;;;11.40;73.80;;;;;;12892888;23;20228;-81
2022/03/04 01:11:14;;;;;;;31.90;19.23;;;11.50;74.20;;;;;;12867032;23;20181;-80
2022/03/04 01:16:16;;;;;;;33.60;19.40;;;11.30;73.50;;;;;;12919201;23;20630;-81
2022/03/04 01:21:19;;;;;;;56.63;32.50;;;10.80;75.40;;;;;;12918800;23;20623;-81
2022/03/04 01:26:22;;;;;;;25.40;14.63;;;10.70;70.30;;;;;;12891766;23;20170;-81
2022/03/04 01:31:24;;;;;;;36.77;20.13;;;10.20;78.00;;;;;;12918998;23;20166;-81
2022/03/04 01:36:32;;;;;;;25.20;15.40;;;9.90;76.00;;;;;;12853393;23;20566;-80
2022/03/04 01:41:35;;;;;;;24.30;15.07;;;10.20;77.80;;;;;;12872892;23;20210;-81
2022/03/04 01:46:37;;;;;;;36.93;19.57;;;10.00;78.60;;;;;;12854347;23;20189;-81
2022/03/04 01:51:40;;;;;;;37.57;20.00;;;9.80;78.90;;;;;;12861064;23;20510;-81
2022/03/04 01:56:42;;;;;;;27.27;16.77;;;9.20;78.20;;;;;;12855354;23;20222;-81
2022/03/04 02:01:45;;;;;;;27.10;15.73;;;9.90;79.70;;;;;;12853251;23;20198;-81
2022/03/04 02:06:48;;;;;;;35.50;21.47;;;9.60;79.90;;;;;;12852986;23;20186;-81
2022/03/04 02:11:51;;;;;;;27.07;15.83;;;10.30;75.60;;;;;;12854012;23;20197;-81
2022/03/04 02:16:54;;;;;;;30.07;14.77;;;8.60;83.10;;;;;;12854817;23;20645;-80
2022/03/04 02:21:59;;;;;;;21.07;13.30;;;9.60;81.60;;;;;;12854962;23;20238;-81
2022/03/04 02:27:02;;;;;;;27.07;14.60;;;8.60;83.20;;;;;;12851919;23;20218;-81
2022/03/04 02:32:06;;;;;;;27.23;15.33;;;8.40;84.60;;;;;;12854186;23;20177;-81
2022/03/04 02:37:08;;;;;;;22.23;12.83;;;8.80;82.40;;;;;;12827587;23;20259;-81
2022/03/04 02:42:11;;;;;;;23.67;13.33;;;9.70;79.90;;;;;;12853138;23;20285;-80
2022/03/04 02:47:15;;;;;;;19.60;12.60;;;9.90;79.70;;;;;;12851819;23;20227;-80
2022/03/04 02:52:17;;;;;;;19.63;12.60;;;8.10;80.90;;;;;;12851487;23;20184;-81
2022/03/04 02:57:20;;;;;;;16.63;9.57;;;7.80;87.90;;;;;;12854083;23;20223;-80
2022/03/04 03:02:22;;;;;;;17.73;10.27;;;8.00;78.70;;;;;;12854344;23;20187;-81
2022/03/04 03:07:25;;;;;;;14.93;9.33;;;8.40;81.80;;;;;;12853897;23;20218;-80
2022/03/04 03:12:28;;;;;;;18.73;11.93;;;8.30;81.30;;;;;;12870941;23;20576;-80
2022/03/04 03:17:30;;;;;;;16.47;9.40;;;7.50;90.10;;;;;;12854111;23;20198;-80
2022/03/04 03:22:33;;;;;;;18.30;11.07;;;6.80;82.60;;;;;;12853510;23;20533;-80
2022/03/04 03:27:36;;;;;;;18.30;10.87;;;7.00;85.80;;;;;;12871351;23;20163;-80
2022/03/04 03:32:38;;;;;;;19.83;11.40;;;7.80;84.10;;;;;;12853864;23;20796;-80
2022/03/04 03:37:41;;;;;;;15.07;8.13;;;8.30;88.90;;;;;;12851327;23;20207;-80
2022/03/04 03:42:44;;;;;;;18.30;8.37;;;6.10;87.00;;;;;;12851654;23;20214;-80
2022/03/04 03:47:47;;;;;;;9.43;6.70;;;6.70;92.40;;;;;;12853454;23;20168;-80
2022/03/04 03:52:49;;;;;;;9.30;6.27;;;7.20;85.90;;;;;;12826436;23;20183;-80
2022/03/04 03:57:51;;;;;;;14.73;8.00;;;6.90;91.90;;;;;;12854143;23;20225;-80
2022/03/04 04:02:59;;;;;;;14.77;8.63;;;6.40;92.50;;;;;;12856821;23;20264;-81
2022/03/04 04:08:01;;;;;;;16.47;9.93;;;7.10;93.10;;;;;;12856956;23;20638;-81
2022/03/04 04:13:04;;;;;;;13.73;7.23;;;8.00;89.30;;;;;;12874765;23;20171;-80
2022/03/04 04:18:06;;;;;;;15.80;9.80;;;8.80;79.90;;;;;;12874920;23;20171;-80
2022/03/04 04:23:09;;;;;;;13.30;9.50;;;8.10;87.50;;;;;;12830028;23;20196;-80
2022/03/04 04:28:11;;;;;;;9.50;6.63;;;7.80;90.00;;;;;;12856654;23;20165;-81
2022/03/04 04:33:14;;;;;;;11.40;7.90;;;7.70;86.30;;;;;;12856504;23;20221;-80
2022/03/04 04:38:17;;;;;;;13.20;9.13;;;6.80;90.80;;;;;;12855260;23;20186;-81
2022/03/04 04:43:20;;;;;;;9.47;6.47;;;9.10;88.10;;;;;;12857065;23;20242;-80
2022/03/04 04:48:22;;;;;;;9.97;6.70;;;8.60;79.10;;;;;;12856881;23;20191;-80
2022/03/04 04:53:26;;;;;;;10.27;7.60;;;9.00;79.50;;;;;;12873392;23;20170;-81
2022/03/04 04:58:28;;;;;;;10.43;7.10;;;7.90;85.80;;;;;;12855943;23;20177;-80
2022/03/04 05:03:32;;;;;;;11.83;7.03;;;9.00;85.20;;;;;;12875060;23;20185;-80
2022/03/04 05:08:34;;;;;;;10.83;7.83;;;9.20;81.30;;;;;;12856856;23;20168;-81
2022/03/04 05:13:38;;;;;;;8.53;4.83;;;9.00;80.60;;;;;;12856685;23;20524;-80
2022/03/04 05:18:40;;;;;;;7.20;4.40;;;7.00;79.60;;;;;;12857163;23;20230;-80
2022/03/04 05:24:02;;;;;;;11.27;7.67;;;7.20;84.30;;;;;;12869652;23;20572;-80
2022/03/04 05:29:09;;;;;;;9.53;7.20;;;8.10;89.00;;;;;;12871596;23;20194;-80
2022/03/04 05:34:12;;;;;;;11.70;5.33;;;7.70;86.70;;;;;;12857572;23;20525;-80
2022/03/04 05:39:15;;;;;;;8.67;4.10;;;7.40;79.40;;;;;;12918307;23;20168;-81
2022/03/04 05:44:18;;;;;;;15.00;8.73;;;6.80;81.60;;;;;;12891941;23;20248;-80
2022/03/04 05:49:20;;;;;;;9.97;6.97;;;8.10;90.70;;;;;;12891466;23;20568;-80
2022/03/04 05:54:27;;;;;;;16.60;8.13;;;7.30;91.40;;;;;;12917996;23;20687;-80
2022/03/04 05:59:29;;;;;;;9.03;3.77;;;8.00;88.50;;;;;;12917245;23;20174;-81
2022/03/04 06:04:32;;;;;;;11.53;7.07;;;7.80;79.80;;;;;;12889590;23;20521;-81
2022/03/04 06:09:34;;;;;;;6.13;3.27;;;8.60;86.40;;;;;;12918252;23;20549;-80
2022/03/04 06:14:37;;;;;;;7.73;3.23;;;9.90;74.40;;;;;;12891295;23;20238;-80
2022/03/04 06:19:41;;;;;;;4.37;3.03;;;10.50;71.70;;;;;;12932051;23;20180;-80
2022/03/04 06:24:44;;;;;;;6.43;3.40;;;10.10;72.50;;;;;;12889417;23;20199;-80
2022/03/04 06:29:47;;;;;;;6.50;3.53;;;9.50;74.60;;;;;;12916136;23;20215;-80
2022/03/04 06:34:49;;;;;;;4.40;2.90;;;10.00;73.60;;;;;;12890448;23;20254;-80
2022/03/04 06:39:52;;;;;;;8.93;4.10;;;9.90;73.40;;;;;;12912766;23;20167;-80
2022/03/04 06:44:54;;;;;;;5.80;2.93;;;7.80;77.50;;;;;;12886051;23;20184;-80
2022/03/04 06:50:05;;;;;;;10.63;4.37;;;8.50;78.80;;;;;;12931034;23;20234;-80
2022/03/04 06:55:08;;;;;;;29.23;11.83;;;9.00;77.20;;;;;;12906630;23;20241;-80
2022/03/04 07:00:12;;;;;;;16.87;8.57;;;8.60;75.50;;;;;;12890281;23;20225;-80
2022/03/04 07:05:15;;;;;;;11.43;6.97;;;8.60;76.60;;;;;;12917226;23;20192;-80
2022/03/04 07:10:18;;;;;;;11.13;4.50;;;7.50;79.40;;;;;;12890157;23;20517;-80
2022/03/04 07:15:20;;;;;;;4.23;2.77;;;6.60;85.00;;;;;;12889175;23;20487;-81
2022/03/04 07:20:23;;;;;;;3.70;2.40;;;7.70;85.00;;;;;;12889531;23;20175;-80
2022/03/04 07:25:26;;;;;;;10.47;3.20;;;7.80;84.70;;;;;;12915741;23;20532;-80
2022/03/04 07:30:28;;;;;;;11.77;5.27;;;8.30;82.10;;;;;;12935871;23;20220;-81
2022/03/04 07:35:31;;;;;;;4.87;3.57;;;8.60;81.00;;;;;;12922489;23;20190;-81
2022/03/04 07:40:34;;;;;;;7.00;3.87;;;9.00;79.00;;;;;;12895819;23;20516;-80
2022/03/04 07:45:37;;;;;;;7.63;3.77;;;8.10;80.90;;;;;;12923147;23;20190;-80
2022/03/04 07:50:39;;;;;;;9.10;3.77;;;6.30;86.80;;;;;;12894924;23;20182;-81
2022/03/04 07:55:42;;;;;;;10.77;4.50;;;7.90;81.90;;;;;;12893991;23;20196;-80
2022/03/04 08:00:44;;;;;;;7.00;5.27;;;3.30;95.20;;;;;;12922266;23;20650;-79
2022/03/04 08:06:07;;;;;;;11.97;5.03;;;4.50;99.90;;;;;;12933008;23;20574;-78
2022/03/04 08:11:10;;;;;;;10.10;5.17;;;7.40;90.90;;;;;;12942484;23;20162;-78
2022/03/04 08:16:12;;;;;;;7.60;3.87;;;7.10;89.50;;;;;;12940526;23;20166;-78
2022/03/04 08:21:15;;;;;;;13.13;3.57;;;6.90;91.00;;;;;;12922049;23;20175;-80
2022/03/04 08:26:18;;;;;;;10.43;4.97;;;9.00;87.30;;;;;;12870880;23;20248;-80
2022/03/04 08:31:20;;;;;;;6.97;4.17;;;6.60;89.80;;;;;;12938987;23;20166;-81
2022/03/04 08:36:24;;;;;;;9.17;3.50;;;5.30;94.60;;;;;;12857821;23;20194;-81
2022/03/04 08:41:26;;;;;;;15.67;4.47;;;6.10;90.90;;;;;;12857601;23;20171;-81
2022/03/04 08:46:29;;;;;;;21.97;4.73;;;5.60;92.40;;;;;;12852790;23;20199;-81
2022/03/04 08:51:32;;;;;;;9.33;4.10;;;7.10;92.00;;;;;;12852726;23;20167;-80
2022/03/04 08:56:34;;;;;;;13.90;4.87;;;6.60;95.80;;;;;;12854690;23;20222;-80
2022/03/04 09:01:37;;;;;;;15.63;5.03;;;7.30;91.40;;;;;;12829010;23;20183;-81
2022/03/04 09:06:40;;;;;;;7.70;4.13;;;7.40;88.50;;;;;;12853480;23;20194;-80
2022/03/04 09:11:43;;;;;;;8.37;4.03;;;6.90;92.80;;;;;;12852096;23;20606;-82
2022/03/04 09:16:46;;;;;;;13.17;4.47;;;6.50;94.00;;;;;;12852128;23;20167;-81
2022/03/04 09:21:49;;;;;;;9.33;2.87;;;6.70;92.30;;;;;;12853954;23;20488;-80
2022/03/04 09:26:51;;;;;;;7.27;3.60;;;6.80;98.90;;;;;;12852043;23;20226;-80
2022/03/04 09:31:54;;;;;;;4.97;3.47;;;8.30;89.20;;;;;;12871014;23;20510;-80
2022/03/04 09:36:56;;;;;;;10.10;3.70;;;6.10;90.30;;;;;;12851549;23;20207;-80
2022/03/04 09:41:59;;;;;;;9.67;3.87;;;6.70;93.80;;;;;;12853254;23;20225;-81
2022/03/04 09:47:02;;;;;;;8.53;3.87;;;6.80;91.20;;;;;;12871686;23;20187;-80
2022/03/04 09:52:06;;;;;;;7.73;4.00;;;6.60;96.30;;;;;;12858634;23;20226;-79
2022/03/04 09:57:09;;;;;;;5.90;3.80;;;8.00;92.20;;;;;;12851406;23;20241;-80
2022/03/04 10:02:12;;;;;;;5.60;3.77;;;7.90;89.30;;;;;;12854450;23;20240;-80
2022/03/04 10:07:17;;;;;;;6.27;2.63;;;6.40;92.90;;;;;;12853209;23;20245;-80
2022/03/04 10:12:20;;;;;;;4.90;2.83;;;6.80;98.00;;;;;;12852448;23;20171;-81
2022/03/04 10:17:24;;;;;;;5.33;2.83;;;8.40;90.60;;;;;;12851424;23;20206;-81
2022/03/04 10:22:45;;;;;;;8.00;3.20;;;8.80;90.60;;;;;;12851587;23;20175;-80
2022/03/04 10:27:48;;;;;;;4.17;3.00;;;8.30;86.40;;;;;;12871145;23;20182;-81
2022/03/04 10:33:05;;;;;;;5.43;2.83;;;7.00;90.90;;;;;;12853006;23;20197;-82
2022/03/04 10:38:19;;;;;;;2.80;2.13;;;7.70;91.20;;;;;;12913364;23;20190;-82
2022/03/04 10:43:33;;;;;;;9.60;5.20;;;7.50;92.30;;;;;;12887116;23;20190;-82
2022/03/04 10:48:35;;;;;;;9.43;5.73;;;7.00;93.90;;;;;;12887156;23;20487;-81
2022/03/04 10:53:39;;;;;;;5.67;2.90;;;7.10;91.90;;;;;;12914402;23;20174;-82
2022/03/04 10:58:41;;;;;;;7.37;2.40;;;5.60;92.20;;;;;;12915450;23;20170;-82
2022/03/04 11:03:44;;;;;;;3.77;2.43;;;5.40;94.20;;;;;;12915515;23;20236;-81
2022/03/04 11:08:47;;;;;;;7.00;3.27;;;6.30;96.10;;;;;;12886389;23;20554;-83
2022/03/04 11:13:50;;;;;;;5.90;3.10;;;5.40;93.40;;;;;;12913761;23;20201;-80
2022/03/04 11:18:54;;;;;;;5.57;3.53;;;5.60;93.10;;;;;;12886553;23;20707;-83
2022/03/04 11:23:58;;;;;;;3.10;2.27;;;5.00;95.40;;;;;;12863167;23;20576;-82
2022/03/04 11:29:03;;;;;;;6.87;3.90;;;6.40;99.90;;;;;;12888417;23;20174;-82
2022/03/04 11:34:05;;;;;;;4.53;2.50;;;6.70;98.30;;;;;;12915095;23;20510;-79
2022/03/04 11:39:14;;;;;;;12.10;7.23;;;5.60;93.00;;;;;;12915141;23;20547;-81
2022/03/04 11:44:18;;;;;;;8.20;4.30;;;6.40;92.30;;;;;;12913761;23;20218;-81
2022/03/04 11:49:33;;;;;;;14.33;6.33;;;7.00;91.50;;;;;;12913716;23;20712;-81
2022/03/04 11:54:42;;;;;;;11.43;4.70;;;6.90;91.40;;;;;;12887640;23;20177;-81
2022/03/04 11:59:55;;;;;;;4.37;2.53;;;8.00;83.60;;;;;;12887895;23;20702;-81
2022/03/04 12:05:22;;;;;;;7.33;4.10;;;6.80;93.80;;;;;;12930303;23;20256;-80
2022/03/04 12:10:26;;;;;;;7.87;5.40;;;7.00;87.80;;;;;;12931455;23;20213;-81
2022/03/04 12:15:30;;;;;;;5.87;2.87;;;6.50;86.50;;;;;;12912945;23;20170;-80
2022/03/04 12:20:39;;;;;;;5.47;3.30;;;6.80;89.90;;;;;;12917015;23;20174;-81
2022/03/04 12:25:53;;;;;;;7.03;3.33;;;7.60;94.10;;;;;;12917901;23;20232;-80
2022/03/04 12:31:17;;;;;;;7.17;2.83;;;6.20;89.80;;;;;;12868109;23;20221;-80
2022/03/04 12:36:20;;;;;;;6.70;3.57;;;8.10;90.50;;;;;;12866047;23;20205;-80
2022/03/04 12:41:29;;;;;;;6.40;3.57;;;6.70;85.90;;;;;;12891848;23;20706;-81
2022/03/04 12:46:34;;;;;;;5.43;4.23;;;5.30;92.10;;;;;;12917435;23;20190;-82
2022/03/04 12:51:43;;;;;;;6.57;3.57;;;5.30;93.40;;;;;;12864818;23;20498;-82
2022/03/04 12:56:54;;;;;;;7.37;4.33;;;6.70;90.70;;;;;;12935460;23;20170;-81
2022/03/04 13:01:57;;;;;;;8.17;2.73;;;5.90;93.20;;;;;;12936996;23;20217;-81
2022/03/04 13:07:01;;;;;;;3.03;2.73;;;7.50;97.00;;;;;;12890371;23;20195;-81
2022/03/04 13:12:08;;;;;;;5.13;3.20;;;7.70;86.60;;;;;;12890216;23;20193;-81
2022/03/04 13:17:12;;;;;;;4.23;2.27;;;7.30;90.80;;;;;;12888606;23;20174;-81
2022/03/04 13:22:17;;;;;;;4.77;3.67;;;7.90;92.20;;;;;;12891137;23;20170;-80
2022/03/04 13:27:19;;;;;;;6.77;4.00;;;6.30;89.40;;;;;;12916777;23;20191;-78
2022/03/04 13:32:23;;;;;;;8.50;3.80;;;9.40;82.80;;;;;;12866834;23;20178;-78
2022/03/04 13:37:38;;;;;;;8.87;4.03;;;8.50;83.90;;;;;;12917267;23;20194;-78
2022/03/04 13:42:43;;;;;;;13.50;6.80;;;6.50;84.80;;;;;;12907476;23;20538;-77
2022/03/04 13:48:03;;;;;;;9.83;4.80;;;6.80;86.70;;;;;;12889957;23;20565;-81
2022/03/04 13:53:05;;;;;;;4.73;3.33;;;5.40;91.30;;;;;;12890061;23;20232;-80
2022/03/04 13:58:34;;;;;;;6.10;4.33;;;5.90;94.20;;;;;;12890889;23;20174;-81
2022/03/04 14:03:46;;;;;;;9.50;4.40;;;6.80;88.60;;;;;;12936751;23;20174;-81
2022/03/04 14:08:49;;;;;;;6.00;3.60;;;7.90;91.30;;;;;;12918156;23;20170;-81
2022/03/04 14:13:53;;;;;;;5.67;3.00;;;6.70;87.20;;;;;;12890767;23;20556;-81
2022/03/04 14:18:58;;;;;;;5.80;3.70;;;6.40;94.40;;;;;;12889780;23;20175;-80
2022/03/04 14:24:00;;;;;;;5.30;4.10;;;6.90;92.30;;;;;;12888128;23;20633;-81
2022/03/04 14:29:11;;;;;;;7.00;3.97;;;6.90;89.90;;;;;;12916109;23;20163;-83
2022/03/04 14:34:14;;;;;;;5.27;3.47;;;8.30;90.00;;;;;;12933257;23;20194;-83
2022/03/04 14:39:17;;;;;;;10.83;4.57;;;7.20;89.70;;;;;;12888996;23;20223;-80
2022/03/04 14:44:19;;;;;;;8.70;5.40;;;9.50;78.80;;;;;;12917625;23;20180;-79
2022/03/04 14:49:22;;;;;;;7.33;5.10;;;10.30;72.50;;;;;;12889987;23;20177;-79
2022/03/04 14:54:24;;;;;;;12.63;5.73;;;9.70;75.70;;;;;;12935737;23;20187;-79
2022/03/04 14:59:47;;;;;;;16.17;5.57;;;8.60;73.60;;;;;;12917557;23;20558;-79
2022/03/04 15:04:50;;;;;;;29.23;10.00;;;8.10;76.80;;;;;;12890756;23;20519;-79
2022/03/04 15:09:52;;;;;;;7.97;5.47;;;7.70;76.30;;;;;;12917348;23;20166;-79
2022/03/04 15:15:11;;;;;;;12.40;5.90;;;8.80;80.20;;;;;;12936310;23;20219;-79
2022/03/04 15:20:15;;;;;;;6.10;4.07;;;8.60;72.50;;;;;;12906031;23;20559;-79
2022/03/04 15:25:18;;;;;;;4.80;3.67;;;7.40;74.50;;;;;;12907182;23;20190;-79
2022/03/04 15:30:20;;;;;;;7.97;4.20;;;7.20;79.30;;;;;;12916781;23;20174;-79
2022/03/04 15:35:26;;;;;;;7.87;4.60;;;6.80;77.10;;;;;;12916136;23;20592;-79
2022/03/04 15:40:28;;;;;;;30.50;14.67;;;7.00;78.70;;;;;;12889185;23;20178;-81
2022/03/04 15:45:31;;;;;;;14.27;9.23;;;5.90;84.30;;;;;;12917261;23;20453;-81
2022/03/04 15:50:35;;;;;;;17.50;7.87;;;7.10;80.20;;;;;;12917462;23;20167;-83
2022/03/04 15:55:38;;;;;;;14.17;7.10;;;7.90;83.70;;;;;;12893587;23;20170;-83
2022/03/04 16:00:40;;;;;;;14.27;7.63;;;8.90;80.10;;;;;;12920102;23;20167;-83
2022/03/04 16:05:43;;;;;;;11.23;6.93;;;8.30;83.70;;;;;;12892696;23;20248;-83
2022/03/04 16:10:45;;;;;;;28.63;11.03;;;9.50;82.10;;;;;;12919616;23;20193;-83
2022/03/04 16:15:49;;;;;;;14.93;6.50;;;9.30;77.60;;;;;;12920516;23;20225;-83
2022/03/04 16:20:52;;;;;;;31.67;13.33;;;9.60;79.20;;;;;;12905940;23;20203;-83
2022/03/04 16:25:54;;;;;;;11.57;6.10;;;9.00;72.20;;;;;;12910014;23;20261;-84
2022/03/04 16:30:59;;;;;;;52.13;21.40;;;9.30;85.10;;;;;;12892746;23;20173;-84
2022/03/04 16:36:02;;;;;;;49.27;25.23;;;11.60;77.70;;;;;;12865511;23;20204;-84
2022/03/04 16:41:05;;;;;;;59.03;28.43;;;12.20;72.60;;;;;;12918968;23;20461;-83
2022/03/04 16:46:08;;;;;;;54.50;26.47;;;11.90;72.90;;;;;;12866201;23;20201;-83
2022/03/04 16:51:30;;;;;;;54.23;26.47;;;11.70;73.80;;;;;;12928673;23;20167;-83
2022/03/04 16:56:33;;;;;;;52.60;23.83;;;11.50;74.30;;;;;;12936485;23;20173;-83
2022/03/04 17:01:36;;;;;;;50.17;24.80;;;11.30;74.70;;;;;;12908120;23;20232;-81
2022/03/04 17:06:38;;;;;;;49.97;24.13;;;10.50;76.10;;;;;;12913217;23;20240;-82
2022/03/04 17:11:41;;;;;;;52.43;26.80;;;10.90;76.80;;;;;;12912230;23;20478;-81
2022/03/04 17:16:45;;;;;;;87.93;36.37;;;10.80;77.50;;;;;;12886246;23;20227;-81
2022/03/04 17:21:48;;;;;;;69.17;30.10;;;11.00;75.70;;;;;;12911258;23;20570;-81
2022/03/04 17:26:50;;;;;;;52.27;24.63;;;11.10;76.20;;;;;;12912635;23;20738;-81
2022/03/04 17:31:53;;;;;;;46.73;23.60;;;11.30;76.10;;;;;;12861581;23;20498;-81
2022/03/04 17:36:55;;;;;;;49.90;25.57;;;11.40;75.70;;;;;;12886434;23;20579;-81
2022/03/04 17:42:18;;;;;;;42.20;22.77;;;10.80;77.10;;;;;;12885149;23;20178;-81
2022/03/04 17:47:21;;;;;;;38.77;21.63;;;11.10;75.90;;;;;;12912446;23;20186;-80
2022/03/04 17:52:23;;;;;;;41.77;21.53;;;11.50;75.90;;;;;;12911653;23;20170;-81
2022/03/04 17:57:26;;;;;;;44.93;22.57;;;11.30;74.60;;;;;;12912763;23;20173;-81
2022/03/04 18:02:28;;;;;;;41.40;21.97;;;11.00;75.00;;;;;;12912823;23;20591;-80
2022/03/04 18:07:31;;;;;;;35.20;18.50;;;11.20;76.60;;;;;;12913766;23;20247;-81
2022/03/04 18:12:34;;;;;;;36.73;20.57;;;11.30;74.90;;;;;;12912392;23;20921;-80
2022/03/04 18:17:36;;;;;;;38.00;20.23;;;11.30;76.40;;;;;;12911851;23;20196;-80
2022/03/04 18:22:39;;;;;;;30.30;18.73;;;11.20;76.00;;;;;;12885426;23;20712;-81
2022/03/04 18:27:42;;;;;;;40.27;24.10;;;11.10;75.90;;;;;;12885306;23;20193;-81
2022/03/04 18:32:45;;;;;;;35.03;21.90;;;11.10;74.50;;;;;;12912452;23;20166;-82
2022/03/04 18:37:47;;;;;;;41.97;27.07;;;10.60;76.80;;;;;;12911641;23;20219;-81
2022/03/04 18:42:51;;;;;;;47.37;23.53;;;10.20;76.40;;;;;;12912549;23;20694;-81
2022/03/04 18:47:54;;;;;;;33.70;18.70;;;10.00;76.80;;;;;;12911493;23;20247;-81
2022/03/04 18:52:57;;;;;;;31.83;18.87;;;10.30;75.50;;;;;;12859039;23;20545;-82
2022/03/04 18:58:00;;;;;;;33.60;20.10;;;9.80;79.10;;;;;;12883842;23;20176;-82
2022/03/04 19:03:04;;;;;;;32.27;18.33;;;9.40;81.60;;;;;;12885792;23;20482;-81
2022/03/04 19:08:07;;;;;;;17.90;10.57;;;9.60;77.60;;;;;;12860518;23;20193;-82
2022/03/04 19:13:10;;;;;;;20.57;13.47;;;8.20;76.50;;;;;;12911536;23;20163;-81
2022/03/04 19:18:12;;;;;;;25.50;15.67;;;6.00;88.40;;;;;;12911364;23;20506;-81
2022/03/04 19:23:15;;;;;;;25.03;12.47;;;7.60;91.00;;;;;;12911540;23;20292;-81
2022/03/04 19:28:17;;;;;;;22.93;13.90;;;8.00;81.90;;;;;;12911032;23;20222;-81
2022/03/04 19:33:19;;;;;;;23.87;13.00;;;8.70;85.10;;;;;;12910998;23;20167;-81
2022/03/04 19:38:22;;;;;;;23.30;14.10;;;8.00;84.30;;;;;;12883576;23;20588;-80
2022/03/04 19:43:24;;;;;;;20.63;12.77;;;7.90;87.10;;;;;;12928969;23;20504;-80
2022/03/04 19:48:27;;;;;;;27.60;15.23;;;7.60;86.30;;;;;;12883248;23;20738;-80
2022/03/04 19:53:30;;;;;;;15.07;10.80;;;7.90;86.50;;;;;;12884324;23;20226;-81
2022/03/04 19:58:32;;;;;;;16.43;11.30;;;6.90;81.90;;;;;;12910836;23;20179;-81
2022/03/04 20:03:35;;;;;;;19.80;10.53;;;7.30;80.50;;;;;;12910378;23;20221;-81
2022/03/04 20:08:38;;;;;;;23.03;13.27;;;6.20;81.60;;;;;;12913704;23;20252;-82
2022/03/04 20:13:40;;;;;;;21.50;11.60;;;7.20;90.40;;;;;;12910945;23;20747;-82
2022/03/04 20:18:43;;;;;;;20.70;12.53;;;7.00;85.70;;;;;;12910624;23;20170;-81
2022/03/04 20:23:45;;;;;;;22.40;13.13;;;7.50;88.20;;;;;;12883461;23;20490;-81
2022/03/04 20:28:49;;;;;;;17.93;12.33;;;7.40;90.30;;;;;;12928417;23;20517;-81
2022/03/04 20:33:51;;;;;;;19.53;9.80;;;7.70;87.50;;;;;;12910002;23;20167;-81
2022/03/04 20:38:58;;;;;;;17.87;11.13;;;6.00;81.80;;;;;;12912906;23;20236;-81
2022/03/04 20:44:01;;;;;;;18.80;12.77;;;6.20;87.70;;;;;;12914234;23;20167;-81
2022/03/04 20:49:04;;;;;;;19.60;12.40;;;7.70;92.90;;;;;;12888905;23;20193;-82
2022/03/04 20:54:06;;;;;;;15.90;9.80;;;8.00;86.30;;;;;;12917926;23;20175;-81
2022/03/04 20:59:09;;;;;;;26.20;14.10;;;7.80;89.00;;;;;;12918927;22;20526;-82
2022/03/04 21:04:12;;;;;;;25.00;13.40;;;9.30;89.60;;;;;;12891379;23;20190;-82
2022/03/04 21:09:15;;;;;;;23.90;12.93;;;9.80;82.80;;;;;;12916531;23;20552;-82
2022/03/04 21:14:19;;;;;;;15.23;9.70;;;10.40;81.70;;;;;;12887494;23;20177;-81
2022/03/04 21:19:22;;;;;;;12.27;8.27;;;9.00;79.60;;;;;;12918075;23;20216;-81
2022/03/04 21:24:24;;;;;;;12.70;8.43;;;4.60;78.20;;;;;;12918170;23;20290;-81
2022/03/04 21:29:27;;;;;;;15.40;9.87;;;1.40;97.20;;;;;;12889377;23;20621;-81
2022/03/04 21:34:29;;;;;;;13.50;9.40;;;0.80;99.90;;;;;;12917914;23;20187;-80
2022/03/04 21:39:32;;;;;;;18.10;10.53;;;0.70;99.90;;;;;;12934949;23;20169;-82
2022/03/04 21:44:35;;;;;;;17.87;11.33;;;0.60;99.90;;;;;;12888997;23;20564;-80
2022/03/04 21:49:37;;;;;;;22.03;11.70;;;0.50;99.90;;;;;;12914063;23;20574;-80
2022/03/04 21:54:40;;;;;;;18.00;10.77;;;0.40;99.90;;;;;;12932355;23;20195;-83
2022/03/04 21:59:44;;;;;;;14.53;7.77;;;2.10;99.90;;;;;;12889405;23;20166;-81
2022/03/04 22:04:46;;;;;;;11.47;7.57;;;3.70;99.90;;;;;;12887166;23;20182;-80
2022/03/04 22:09:49;;;;;;;14.13;7.90;;;5.10;99.90;;;;;;12933556;23;20248;-80
2022/03/04 22:14:52;;;;;;;11.97;8.23;;;6.20;99.90;;;;;;12915725;23;20242;-80
2022/03/04 22:19:58;;;;;;;12.20;8.47;;;7.60;99.90;;;;;;12932760;23;20173;-80
2022/03/04 22:25:01;;;;;;;9.80;6.77;;;7.60;95.40;;;;;;12933146;23;20193;-80
2022/03/04 22:30:05;;;;;;;13.93;6.93;;;8.30;99.90;;;;;;12917280;23;20240;-80
2022/03/04 22:35:08;;;;;;;11.53;7.23;;;7.20;99.00;;;;;;12889715;23;20331;-80
2022/03/04 22:40:11;;;;;;;10.13;6.20;;;6.50;99.10;;;;;;12909149;23;20514;-81
2022/03/04 22:45:13;;;;;;;12.53;8.03;;;7.60;99.90;;;;;;12888789;23;20621;-81
2022/03/04 22:50:16;;;;;;;12.60;6.67;;;8.00;95.80;;;;;;12907890;23;20186;-81
2022/03/04 22:55:19;;;;;;;11.93;6.87;;;7.40;97.20;;;;;;12888530;23;20621;-81
2022/03/04 23:00:40;;;;;;;13.93;7.43;;;7.80;97.00;;;;;;12915291;23;20193;-81
2022/03/04 23:11:23;;;;;;;10.73;7.90;;;7.30;89.40;;;;;;12934300;23;20169;-81
2022/03/04 23:16:34;;;;;;;19.83;8.30;;;7.50;92.40;;;;;;12934022;23;20162;-81
2022/03/04 23:21:38;;;;;;;13.03;8.03;;;8.00;87.10;;;;;;12928509;23;20198;-80
2022/03/04 23:26:42;;;;;;;11.97;7.00;;;6.40;91.60;;;;;;12889997;23;20182;-81
2022/03/04 23:31:45;;;;;;;12.60;6.70;;;6.60;95.90;;;;;;12890061;23;20170;-81
2022/03/04 23:36:48;;;;;;;13.03;6.60;;;7.10;96.40;;;;;;12916240;23;20190;-81
2022/03/04 23:41:50;;;;;;;11.10;6.57;;;7.70;93.70;;;;;;12916951;23;20572;-80
2022/03/04 23:46:53;;;;;;;8.80;5.50;;;7.70;92.20;;;;;;12916430;23;20186;-80
2022/03/04 23:51:55;;;;;;;9.40;5.57;;;10.00;90.10;;;;;;12916333;23;20201;-81
2022/03/04 23:56:58;;;;;;;12.73;6.30;;;9.70;87.70;;;;;;12890075;23;20216;-81
